Terminal Aerodrome Forecast
Issued by NWS

Home | Current Version | Previous Version | Text Only | Print | Product List | Glossary On
Versions: 1 2 3 4 5 6 7 8 9 10 11 12 13 14 15 16 17
000
FTUS43 KGRB 110153 AAA
TAFATW
TAF AMD
KATW 110153Z 1102/1124 23004KT 3SM -SN OVC035
     FM110400 VRB03KT 3SM -SN OVC025
     FM110800 10004KT 2SM -SN OVC018
     FM111200 07008KT 1SM -SN OVC010
      TEMPO 1115/1119 3/4SM -SN BR OVC008
     FM111900 11010KT 1 1/2SM -SN BR OVC012=

USA.gov is the U.S. government's official web portal to all federal, state and local government web resources and services.